ADDS METAR Data INFO
IDs: Format: Raw Decoded Include TAF

Data at: 0059 UTC 22 Oct 2017

KAXA 220055Z AUTO 30009KT 10SM BKN060 BKN075 OVC090 13/10 A2981 RMK AO2 PWINO
KAXA 220035Z AUTO 30006KT 10SM FEW037 SCT045 BKN065 13/11 A2981 RMK AO2 PWINO
KAXA 220015Z AUTO 31006KT 10SM FEW025 BKN035 OVC043 14/11 A2980 RMK AO2 PWINO
KAXA 212355Z AUTO 31009KT 7SM FEW023 OVC033 14/11 A2980 RMK AO2 P0003 PWINO
KAXA 212335Z AUTO 31010G18KT 10SM OVC029 14/11 A2978 RMK AO2 PWINO
KAXA 212315Z AUTO 30010G16KT 9SM OVC028 14/12 A2978 RMK AO2 PWINO
KAXA 212255Z AUTO 30008G17KT 10SM OVC026 15/12 A2977 RMK AO2 P0002 PWINO
KAXA 212235Z AUTO 28013G20KT 10SM FEW012 SCT019 OVC024 15/14 A2976 RMK AO2 PWINO
KAXA 212215Z AUTO 28011G20KT 9SM BKN022 BKN030 OVC050 16/16 A2972 RMK AO2 PWINO
KAXA 212155Z AUTO 20013G21KT 9SM FEW028 BKN039 OVC050 21/17 A2970 RMK AO2 PWINO
KAXA 212135Z AUTO 17014G24KT 10SM BKN039 OVC060 21/17 A2967 RMK AO2 PWINO
KAXA 212115Z AUTO 17018G26KT 10SM BKN035 BKN041 OVC047 21/17 A2968 RMK AO2 PWINO
KAXA 212055Z AUTO 17019G31KT 10SM BKN036 21/17 A2968 RMK AO2 PWINO
KAXA 212035Z AUTO 17021G27KT 10SM FEW026 SCT070 22/17 A2966 RMK AO2 PWINO
KAXA 212015Z AUTO 17021G30KT 10SM FEW027 FEW037 OVC070 22/17 A2967 RMK AO2 PWINO
KAXA 211955Z AUTO 17020G28KT 10SM FEW037 OVC065 21/17 A2968 RMK AO2 PWINO
KAXA 211935Z AUTO 17020G28KT 10SM FEW037 OVC065 21/17 A2968 RMK AO2 PWINO
KAXA 211915Z AUTO 17014G22KT 10SM FEW022 SCT028 BKN038 20/17 A2968 RMK AO2 PWINO
KAXA 211855Z AUTO 17015G25KT 10SM BKN021 OVC028 19/17 A2969 RMK AO2 PWINO
KAXA 211835Z AUTO 17015G22KT 10SM OVC021 19/17 A2970 RMK AO2 PWINO
KAXA 211815Z AUTO 17014G24KT 10SM BKN023 OVC028 19/17 A2970 RMK AO2 PWINO
KAXA 211755Z AUTO 17018G26KT 10SM FEW017 BKN027 OVC055 19/17 A2969 RMK AO2 PWINO
KAXA 211735Z AUTO 16020KT 10SM FEW016 SCT025 OVC050 19/17 A2969 RMK AO2 PWINO
KAXA 211715Z AUTO 15017G27KT 10SM SCT016 BKN026 OVC050 19/18 A2969 RMK AO2 PWINO
KAXA 211655Z AUTO 16017G25KT 9SM SCT016 BKN048 OVC055 18/18 A2969 RMK AO2 PWINO
KAXA 211635Z AUTO 16019G26KT 6SM BR FEW015 BKN023 OVC047 17/17 A2970 RMK AO2 PWINO
KAXA 211615Z AUTO 16016G22KT 6SM BR BKN015 OVC024 17/17 A2970 RMK AO2 PWINO
KAXA 211555Z AUTO 16017KT 5SM BR SCT009 BKN015 BKN025 17/17 A2971 RMK AO2 PWINO
KAXA 211535Z AUTO 16015G21KT 4SM BR BKN009 BKN016 17/17 A2971 RMK AO2 PWINO
KAXA 211515Z AUTO 17011G21KT 3SM BR BKN007 BKN012 BKN017 16/16 A2971 RMK AO2 PWINO
KAXA 211455Z AUTO 16017G24KT 2 1/2SM BR BKN006 BKN011 OVC019 16/16 A2971 RMK AO2 PWINO
KAXA 211435Z AUTO 16013G23KT 1 3/4SM BR OVC005 16/16 A2971 RMK AO2 PWINO
KAXA 211415Z AUTO 15017G24KT 2SM BR BKN007 OVC018 16/16 A2970 RMK AO2 PWINO
KAXA 211355Z AUTO 16016G22KT 7SM -DZ SCT008 BKN019 OVC035 16/16 A2969 RMK AO2 P0004
KAXA 211335Z AUTO 16023G30KT 5SM BR SCT009 BKN034 OVC085 16/16 A2968 RMK AO2 PWINO
KAXA 211315Z AUTO 16018G28KT 4SM -RA SCT009 BKN022 OVC110 16/16 A2968 RMK AO2
KAXA 211255Z AUTO 15016G26KT 7SM SCT022 BKN055 OVC110 16/16 A2969 RMK AO2 P0016 PWINO
KAXA 211235Z AUTO 15011G20KT 6SM -RA SCT020 BKN026 OVC055 16/16 A2969 RMK AO2
KAXA 211215Z AUTO 16017G29KT 3SM -RA BKN006 BKN030 OVC050 16/16 A2970 RMK AO2
KAXA 211155Z AUTO 17021G29KT 4SM -RA SCT007 BKN010 OVC100 16/16 A2970 RMK AO2 P0011
KAXA 211135Z AUTO 16015G21KT 6SM -RA SCT013 SCT032 BKN060 16/16 A2969 RMK AO2
KAXA 211115Z AUTO 16010G17KT 4SM -RA BKN032 BKN060 OVC100 16/16 A2970 RMK AO2
KAXA 211055Z AUTO 17012KT 3SM RA FEW016 BKN029 OVC041 16/16 A2970 RMK AO2 P0027
KAXA 211035Z AUTO 18014KT 5SM -RA SCT030 BKN035 OVC043 16/16 A2971 RMK AO2
KAXA 211015Z AUTO 18014G23KT 4SM -RA FEW003 SCT020 BKN032 15/15 A2970 RMK AO2
KAXA 210955Z AUTO 17017G22KT 3SM BR FEW003 BKN021 OVC031 16/15 A2970 RMK AO2 P0014 PWINO
KAXA 210935Z AUTO 16013G21KT 10SM BKN027 BKN032 OVC048 16/14 A2969 RMK AO2 PWINO
KAXA 210915Z AUTO 16013G19KT 8SM BKN028 OVC034 17/13 A2969 RMK AO2 PWINO
KAXA 210855Z AUTO 16013G22KT 10SM BKN032 BKN038 OVC055 17/13 A2970 RMK AO2 PWINO
KAXA 210835Z AUTO 17011G19KT 10SM FEW031 BKN055 17/13 A2970 RMK AO2 PWINO
KAXA 210815Z AUTO 17016G25KT 10SM FEW032 17/13 A2969 RMK AO2 PWINO
KAXA 210755Z AUTO 17016G24KT 10SM FEW036 17/13 A2970 RMK AO2 PWINO
KAXA 210735Z AUTO 17015G24KT 10SM FEW035 17/13 A2971 RMK AO2 PWINO
KAXA 210715Z AUTO 17016G22KT 10SM CLR 17/13 A2971 RMK AO2 PWINO
KAXA 210655Z AUTO 17016G25KT 10SM CLR 17/13 A2972 RMK AO2 PWINO
KAXA 210635Z AUTO 17019G25KT 10SM CLR 17/13 A2972 RMK AO2 PWINO
KAXA 210615Z AUTO 16016G23KT 10SM CLR 17/13 A2972 RMK AO2 PWINO
KAXA 210555Z AUTO 17019G25KT 10SM CLR 17/13 A2973 RMK AO2 PWINO
KAXA 210535Z AUTO 17018G27KT 10SM CLR 17/13 A2974 RMK AO2 PWINO
KAXA 210515Z AUTO 17018G26KT 10SM CLR 17/13 A2974 RMK AO2 PWINO
KAXA 210455Z AUTO 17021G28KT 10SM CLR 18/13 A2974 RMK AO2 PWINO
KAXA 210435Z AUTO 17020G29KT 10SM CLR 18/13 A2974 RMK AO2 PWINO
KAXA 210415Z AUTO 17020G28KT 10SM CLR 18/13 A2974 RMK AO2 PWINO
KAXA 210355Z AUTO 18020G29KT 10SM CLR 18/13 A2975 RMK AO2 PWINO
KAXA 210335Z AUTO 17021G29KT 10SM CLR 18/13 A2975 RMK AO2 PWINO
KAXA 210315Z AUTO 17019G29KT 10SM FEW110 19/13 A2975 RMK AO2 PWINO
KAXA 210255Z AUTO 17023G30KT 10SM BKN110 19/13 A2975 RMK AO2 PWINO
KAXA 210235Z AUTO 17019G26KT 10SM BKN120 19/12 A2975 RMK AO2 PWINO
KAXA 210215Z AUTO 17016G28KT 10SM SCT120 19/12 A2975 RMK AO2 PWINO
KAXA 210155Z AUTO 16015G22KT 10SM CLR 19/12 A2974 RMK AO2 PWINO
KAXA 210135Z AUTO 16011G17KT 10SM CLR 18/12 A2975 RMK AO2 PWINO
KAXA 210115Z AUTO 15012G19KT 10SM CLR 19/12 A2975 RMK AO2 PWINO
KAXA 210055Z AUTO 16016G22KT 10SM CLR 19/12 A2976 RMK AO2 PWINO
KAXA 210035Z AUTO 16018KT 10SM CLR 20/11 A2976 RMK AO2 PWINO
KAXA 210015Z AUTO 16012KT 10SM CLR 20/11 A2976 RMK AO2 PWINO
KAXA 202355Z AUTO 16016G22KT 10SM CLR 20/11 A2976 RMK AO2 PWINO
KAXA 202335Z AUTO 16013KT 10SM CLR 21/11 A2976 RMK AO2 PWINO
KAXA 202315Z AUTO 16013G21KT 10SM CLR 21/11 A2976 RMK AO2 PWINO
KAXA 202255Z AUTO 17017G29KT 10SM CLR 22/10 A2975 RMK AO2 PWINO
KAXA 202235Z AUTO 17019G25KT 10SM CLR 22/11 A2976 RMK AO2 PWINO
KAXA 202215Z AUTO 16018G26KT 10SM CLR 23/10 A2976 RMK AO2 PWINO
KAXA 202155Z AUTO 18018G29KT 10SM CLR 23/10 A2976 RMK AO2 PWINO
KAXA 202135Z AUTO 17017G25KT 10SM CLR 23/10 A2977 RMK AO2 PWINO
KAXA 202115Z AUTO 17021G31KT 10SM CLR 24/10 A2977 RMK AO2 PWINO
KAXA 202055Z AUTO 18021G30KT 10SM CLR 24/09 A2977 RMK AO2 PWINO
KAXA 202035Z AUTO 17020G28KT 9SM CLR 24/10 A2978 RMK AO2 PWINO
KAXA 202015Z AUTO 18021G29KT 10SM CLR 24/10 A2979 RMK AO2 PWINO
KAXA 201955Z AUTO 17020G26KT 10SM CLR 24/11 A2980 RMK AO2
KAXA 201935Z AUTO 17019G31KT 10SM CLR 24/11 A2980 RMK AO2 PWINO
KAXA 201915Z AUTO 18019G26KT 10SM CLR 25/12 A2981 RMK AO2 PWINO
KAXA 201855Z AUTO 19018G32KT 10SM CLR 25/12 A2983 RMK AO2 PWINO
KAXA 201835Z AUTO 19021G28KT 10SM CLR 24/12 A2984 RMK AO2 PWINO
KAXA 201815Z AUTO 17016G23KT 10SM CLR 23/13 A2985 RMK AO2 PWINO
KAXA 201755Z AUTO 18018G26KT 10SM CLR 24/13 A2986 RMK AO2 PWINO
KAXA 201735Z AUTO 19020KT 10SM CLR 22/12 A2987 RMK AO2 PWINO
KAXA 201715Z AUTO 18019G25KT 9SM CLR 23/12 A2988 RMK AO2 PWINO
KAXA 201655Z AUTO 19017G23KT CLR 21/12 A2990 RMK AO2 PWINO
KAXA 201635Z AUTO 19018G26KT 10SM CLR 21/12 A2990 RMK AO2 PWINO
KAXA 201615Z AUTO 20019G25KT 9SM CLR 20/12 A2991 RMK AO2 PWINO
KAXA 201555Z AUTO 20018G23KT 9SM CLR 20/12 A2992 RMK AO2 PWINO
KAXA 201535Z AUTO 19015G21KT 10SM CLR 19/12 A2993 RMK AO2 PWINO
KAXA 201515Z AUTO 19015G21KT 10SM CLR 18/12 A2993 RMK AO2 PWINO
KAXA 201455Z AUTO 19015KT 9SM CLR 16/13 A2994 RMK AO2 PWINO
KAXA 201435Z AUTO 19013KT 10SM CLR 15/13 A2995 RMK AO2 PWINO
KAXA 201415Z AUTO 18014KT 10SM CLR 14/13 A2995 RMK AO2 PWINO
KAXA 201355Z AUTO 18012KT 10SM CLR 13/12 A2995 RMK AO2 PWINO
KAXA 201335Z AUTO 17012KT 10SM CLR 13/12 A2995 RMK AO2 PWINO
KAXA 201315Z AUTO 17012KT 10SM CLR 12/12 A2995 RMK AO2 PWINO